sensor_id;sensor_type;location;lat;lon;timestamp;temperature;humidity
3268;DHT22;1646;52.450;13.326;2024-01-27T00:04:58;6.20;99.90
3268;DHT22;1646;52.450;13.326;2024-01-27T00:09:56;6.20;99.90
3268;DHT22;1646;52.450;13.326;2024-01-27T00:14:56;6.10;99.90
3268;DHT22;1646;52.450;13.326;2024-01-27T00:19:55;6.10;99.90
3268;DHT22;1646;52.450;13.326;2024-01-27T00:24:54;6.20;99.90
3268;DHT22;1646;52.450;13.326;2024-01-27T00:29:52;6.30;99.90
3268;DHT22;1646;52.450;13.326;2024-01-27T00:34:50;6.20;99.90
3268;DHT22;1646;52.450;13.326;2024-01-27T00:39:50;6.20;99.90
3268;DHT22;1646;52.450;13.326;2024-01-27T00:44:49;6.30;99.90
3268;DHT22;1646;52.450;13.326;2024-01-27T00:49:47;6.30;99.90
3268;DHT22;1646;52.450;13.326;2024-01-27T00:54:45;6.30;99.90
3268;DHT22;1646;52.450;13.326;2024-01-27T00:59:45;6.30;99.90
3268;DHT22;1646;52.450;13.326;2024-01-27T01:04:44;6.20;99.90
3268;DHT22;1646;52.450;13.326;2024-01-27T01:09:42;6.30;99.90
3268;DHT22;1646;52.450;13.326;2024-01-27T01:14:40;6.20;99.90
3268;DHT22;1646;52.450;13.326;2024-01-27T01:19:40;6.10;99.90
3268;DHT22;1646;52.450;13.326;2024-01-27T01:24:38;6.00;99.90
3268;DHT22;1646;52.450;13.326;2024-01-27T01:29:37;6.00;99.90
3268;DHT22;1646;52.450;13.326;2024-01-27T01:34:35;6.10;99.90
3268;DHT22;1646;52.450;13.326;2024-01-27T01:39:35;6.10;99.90
3268;DHT22;1646;52.450;13.326;2024-01-27T01:44:33;6.10;99.90
3268;DHT22;1646;52.450;13.326;2024-01-27T01:49:31;6.10;99.90
3268;DHT22;1646;52.450;13.326;2024-01-27T01:54:30;6.00;99.90
3268;DHT22;1646;52.450;13.326;2024-01-27T01:59:31;6.00;99.90
3268;DHT22;1646;52.450;13.326;2024-01-27T02:04:29;5.90;99.90
3268;DHT22;1646;52.450;13.326;2024-01-27T02:09:36;5.80;99.90
3268;DHT22;1646;52.450;13.326;2024-01-27T02:14:36;5.90;99.90
3268;DHT22;1646;52.450;13.326;2024-01-27T02:19:35;6.00;99.90
3268;DHT22;1646;52.450;13.326;2024-01-27T02:24:34;5.90;99.90
3268;DHT22;1646;52.450;13.326;2024-01-27T02:29:33;6.00;99.90
3268;DHT22;1646;52.450;13.326;2024-01-27T02:34:31;6.00;99.90
3268;DHT22;1646;52.450;13.326;2024-01-27T02:39:29;6.00;99.90
3268;DHT22;1646;52.450;13.326;2024-01-27T02:44:29;6.00;99.90
3268;DHT22;1646;52.450;13.326;2024-01-27T02:49:27;6.00;99.90
3268;DHT22;1646;52.450;13.326;2024-01-27T02:54:26;6.00;99.90
3268;DHT22;1646;52.450;13.326;2024-01-27T02:59:24;6.00;99.90
3268;DHT22;1646;52.450;13.326;2024-01-27T03:04:24;5.90;99.90
3268;DHT22;1646;52.450;13.326;2024-01-27T03:09:22;5.80;99.90
3268;DHT22;1646;52.450;13.326;2024-01-27T03:14:21;5.60;99.90
3268;DHT22;1646;52.450;13.326;2024-01-27T03:19:19;5.60;99.90
3268;DHT22;1646;52.450;13.326;2024-01-27T03:24:18;5.50;99.90
3268;DHT22;1646;52.450;13.326;2024-01-27T03:29:17;5.50;99.90
3268;DHT22;1646;52.450;13.326;2024-01-27T03:34:15;5.40;99.90
3268;DHT22;1646;52.450;13.326;2024-01-27T03:39:15;5.40;99.90
3268;DHT22;1646;52.450;13.326;2024-01-27T03:44:14;5.50;99.90
3268;DHT22;1646;52.450;13.326;2024-01-27T03:49:12;5.40;99.90
3268;DHT22;1646;52.450;13.326;2024-01-27T03:54:11;5.30;99.90
3268;DHT22;1646;52.450;13.326;2024-01-27T03:59:09;5.20;99.90
3268;DHT22;1646;52.450;13.326;2024-01-27T04:04:09;5.10;99.90
3268;DHT22;1646;52.450;13.326;2024-01-27T04:09:08;5.10;99.90
3268;DHT22;1646;52.450;13.326;2024-01-27T04:14:07;5.10;99.90
3268;DHT22;1646;52.450;13.326;2024-01-27T04:19:06;5.10;99.90
3268;DHT22;1646;52.450;13.326;2024-01-27T04:24:06;5.00;99.90
3268;DHT22;1646;52.450;13.326;2024-01-27T04:29:04;5.10;99.90
3268;DHT22;1646;52.450;13.326;2024-01-27T04:34:02;5.10;99.90
3268;DHT22;1646;52.450;13.326;2024-01-27T04:39:01;5.00;99.90
3268;DHT22;1646;52.450;13.326;2024-01-27T04:44:00;5.10;99.90
3268;DHT22;1646;52.450;13.326;2024-01-27T04:48:59;5.10;99.90
3268;DHT22;1646;52.450;13.326;2024-01-27T04:53:57;5.20;99.90
3268;DHT22;1646;52.450;13.326;2024-01-27T04:58:56;5.10;99.90
3268;DHT22;1646;52.450;13.326;2024-01-27T05:03:56;5.10;99.90
3268;DHT22;1646;52.450;13.326;2024-01-27T05:08:54;5.20;99.90
3268;DHT22;1646;52.450;13.326;2024-01-27T05:13:52;5.30;99.90
3268;DHT22;1646;52.450;13.326;2024-01-27T05:18:51;5.30;99.90
3268;DHT22;1646;52.450;13.326;2024-01-27T05:23:51;5.30;99.90
3268;DHT22;1646;52.450;13.326;2024-01-27T05:28:49;5.50;99.90
3268;DHT22;1646;52.450;13.326;2024-01-27T05:33:48;5.50;99.90
3268;DHT22;1646;52.450;13.326;2024-01-27T05:38:46;5.50;99.90
3268;DHT22;1646;52.450;13.326;2024-01-27T05:43:46;5.50;99.90
3268;DHT22;1646;52.450;13.326;2024-01-27T05:48:44;5.60;99.90
3268;DHT22;1646;52.450;13.326;2024-01-27T05:53:42;5.60;99.90
3268;DHT22;1646;52.450;13.326;2024-01-27T05:58:41;5.60;99.90
3268;DHT22;1646;52.450;13.326;2024-01-27T06:03:43;5.50;99.90
3268;DHT22;1646;52.450;13.326;2024-01-27T06:08:42;5.50;99.90
3268;DHT22;1646;52.450;13.326;2024-01-27T06:13:40;5.50;99.90
3268;DHT22;1646;52.450;13.326;2024-01-27T06:18:42;5.70;99.90
3268;DHT22;1646;52.450;13.326;2024-01-27T06:23:40;5.80;99.90
3268;DHT22;1646;52.450;13.326;2024-01-27T06:28:38;5.80;99.90
3268;DHT22;1646;52.450;13.326;2024-01-27T06:33:36;5.90;99.90
3268;DHT22;1646;52.450;13.326;2024-01-27T06:38:37;5.90;99.90
3268;DHT22;1646;52.450;13.326;2024-01-27T06:43:36;5.90;99.90
3268;DHT22;1646;52.450;13.326;2024-01-27T06:48:34;5.90;99.90
3268;DHT22;1646;52.450;13.326;2024-01-27T06:53:33;5.90;99.90
3268;DHT22;1646;52.450;13.326;2024-01-27T06:58:32;5.90;99.90
3268;DHT22;1646;52.450;13.326;2024-01-27T07:03:31;6.00;99.90
3268;DHT22;1646;52.450;13.326;2024-01-27T07:08:30;5.90;99.90
3268;DHT22;1646;52.450;13.326;2024-01-27T07:13:35;6.00;99.90
3268;DHT22;1646;52.450;13.326;2024-01-27T07:18:34;6.10;99.90
3268;DHT22;1646;52.450;13.326;2024-01-27T07:23:32;6.20;99.90
3268;DHT22;1646;52.450;13.326;2024-01-27T07:28:32;6.30;99.90
3268;DHT22;1646;52.450;13.326;2024-01-27T07:33:32;6.30;99.90
3268;DHT22;1646;52.450;13.326;2024-01-27T07:38:31;6.20;99.90
3268;DHT22;1646;52.450;13.326;2024-01-27T07:43:29;6.30;99.90
3268;DHT22;1646;52.450;13.326;2024-01-27T07:48:27;6.30;99.90
3268;DHT22;1646;52.450;13.326;2024-01-27T07:53:27;6.30;99.90
3268;DHT22;1646;52.450;13.326;2024-01-27T07:58:25;6.30;99.90
3268;DHT22;1646;52.450;13.326;2024-01-27T08:03:24;6.30;99.90
3268;DHT22;1646;52.450;13.326;2024-01-27T08:08:22;6.30;99.90
3268;DHT22;1646;52.450;13.326;2024-01-27T08:13:22;6.30;99.90
3268;DHT22;1646;52.450;13.326;2024-01-27T08:18:20;6.50;99.90
3268;DHT22;1646;52.450;13.326;2024-01-27T08:23:18;6.50;99.90
3268;DHT22;1646;52.450;13.326;2024-01-27T08:28:17;6.60;99.90
3268;DHT22;1646;52.450;13.326;2024-01-27T08:33:16;6.60;99.90
3268;DHT22;1646;52.450;13.326;2024-01-27T08:38:15;6.60;99.90
3268;DHT22;1646;52.450;13.326;2024-01-27T08:43:13;6.80;99.90
3268;DHT22;1646;52.450;13.326;2024-01-27T08:48:11;6.90;99.90
3268;DHT22;1646;52.450;13.326;2024-01-27T08:53:12;6.90;99.90
3268;DHT22;1646;52.450;13.326;2024-01-27T08:58:10;6.90;99.90
3268;DHT22;1646;52.450;13.326;2024-01-27T09:03:08;6.90;99.90
3268;DHT22;1646;52.450;13.326;2024-01-27T09:08:07;6.90;99.90
3268;DHT22;1646;52.450;13.326;2024-01-27T09:13:06;7.00;99.90
3268;DHT22;1646;52.450;13.326;2024-01-27T09:18:04;7.10;99.90
3268;DHT22;1646;52.450;13.326;2024-01-27T09:23:03;6.90;99.90
3268;DHT22;1646;52.450;13.326;2024-01-27T09:28:02;7.00;99.90
3268;DHT22;1646;52.450;13.326;2024-01-27T09:33:02;7.10;99.90
3268;DHT22;1646;52.450;13.326;2024-01-27T09:38:00;7.00;99.90
3268;DHT22;1646;52.450;13.326;2024-01-27T09:42:59;7.00;99.90
3268;DHT22;1646;52.450;13.326;2024-01-27T09:48:00;7.00;99.90
3268;DHT22;1646;52.450;13.326;2024-01-27T09:53:00;7.00;99.90
3268;DHT22;1646;52.450;13.326;2024-01-27T09:57:59;7.00;99.90
3268;DHT22;1646;52.450;13.326;2024-01-27T10:02:58;7.10;99.90
3268;DHT22;1646;52.450;13.326;2024-01-27T10:07:56;7.00;99.90
3268;DHT22;1646;52.450;13.326;2024-01-27T10:12:58;7.20;99.90
3268;DHT22;1646;52.450;13.326;2024-01-27T10:18:04;7.20;99.90
3268;DHT22;1646;52.450;13.326;2024-01-27T10:23:13;7.10;99.90
3268;DHT22;1646;52.450;13.326;2024-01-27T10:28:12;7.20;99.90
3268;DHT22;1646;52.450;13.326;2024-01-27T10:33:12;7.40;99.90
3268;DHT22;1646;52.450;13.326;2024-01-27T10:38:11;7.50;99.90
3268;DHT22;1646;52.450;13.326;2024-01-27T10:43:09;7.50;99.90
3268;DHT22;1646;52.450;13.326;2024-01-27T10:48:09;7.50;99.90
3268;DHT22;1646;52.450;13.326;2024-01-27T10:53:21;7.60;99.90
3268;DHT22;1646;52.450;13.326;2024-01-27T10:58:22;7.70;99.90
3268;DHT22;1646;52.450;13.326;2024-01-27T11:03:23;7.80;99.90
3268;DHT22;1646;52.450;13.326;2024-01-27T11:08:24;7.80;99.90
3268;DHT22;1646;52.450;13.326;2024-01-27T11:13:25;7.70;99.90
3268;DHT22;1646;52.450;13.326;2024-01-27T11:18:26;7.70;99.90
3268;DHT22;1646;52.450;13.326;2024-01-27T11:23:31;7.70;99.90
3268;DHT22;1646;52.450;13.326;2024-01-27T11:28:30;7.60;99.90
3268;DHT22;1646;52.450;13.326;2024-01-27T11:33:30;7.60;99.90
3268;DHT22;1646;52.450;13.326;2024-01-27T11:38:29;7.50;99.90
3268;DHT22;1646;52.450;13.326;2024-01-27T11:43:28;7.50;99.90
3268;DHT22;1646;52.450;13.326;2024-01-27T11:48:27;7.50;99.90
3268;DHT22;1646;52.450;13.326;2024-01-27T11:53:28;7.70;99.90
3268;DHT22;1646;52.450;13.326;2024-01-27T11:58:26;7.80;99.90
3268;DHT22;1646;52.450;13.326;2024-01-27T12:03:24;7.80;99.90
3268;DHT22;1646;52.450;13.326;2024-01-27T12:08:22;7.70;99.90
3268;DHT22;1646;52.450;13.326;2024-01-27T12:13:22;7.50;99.90
3268;DHT22;1646;52.450;13.326;2024-01-27T12:18:20;7.50;99.90
3268;DHT22;1646;52.450;13.326;2024-01-27T12:23:19;7.60;99.90
3268;DHT22;1646;52.450;13.326;2024-01-27T12:28:18;7.70;99.90
3268;DHT22;1646;52.450;13.326;2024-01-27T12:33:19;7.80;99.90
3268;DHT22;1646;52.450;13.326;2024-01-27T12:38:22;8.00;99.90
3268;DHT22;1646;52.450;13.326;2024-01-27T12:43:20;8.30;99.90
3268;DHT22;1646;52.450;13.326;2024-01-27T12:48:20;8.40;99.90
3268;DHT22;1646;52.450;13.326;2024-01-27T12:53:18;8.50;99.90
3268;DHT22;1646;52.450;13.326;2024-01-27T12:58:17;9.10;99.90
3268;DHT22;1646;52.450;13.326;2024-01-27T13:03:15;9.60;99.90
3268;DHT22;1646;52.450;13.326;2024-01-27T13:08:16;10.60;99.90
3268;DHT22;1646;52.450;13.326;2024-01-27T13:13:14;11.20;99.90
3268;DHT22;1646;52.450;13.326;2024-01-27T13:18:12;11.40;99.90
3268;DHT22;1646;52.450;13.326;2024-01-27T13:23:11;12.20;99.90
3268;DHT22;1646;52.450;13.326;2024-01-27T13:28:11;12.00;99.90
3268;DHT22;1646;52.450;13.326;2024-01-27T13:33:09;11.60;99.90
3268;DHT22;1646;52.450;13.326;2024-01-27T13:38:08;11.60;99.90
3268;DHT22;1646;52.450;13.326;2024-01-27T13:43:07;11.20;99.90
3268;DHT22;1646;52.450;13.326;2024-01-27T13:48:07;10.40;99.90
3268;DHT22;1646;52.450;13.326;2024-01-27T13:53:06;9.80;99.90
3268;DHT22;1646;52.450;13.326;2024-01-27T13:58:04;9.50;99.90
3268;DHT22;1646;52.450;13.326;2024-01-27T14:03:03;9.50;99.90
3268;DHT22;1646;52.450;13.326;2024-01-27T14:08:03;9.60;99.90
3268;DHT22;1646;52.450;13.326;2024-01-27T14:13:04;9.50;99.90
3268;DHT22;1646;52.450;13.326;2024-01-27T14:18:06;9.30;99.90
3268;DHT22;1646;52.450;13.326;2024-01-27T14:23:08;9.10;99.90
3268;DHT22;1646;52.450;13.326;2024-01-27T14:28:07;8.90;99.90
3268;DHT22;1646;52.450;13.326;2024-01-27T14:33:07;8.90;99.90
3268;DHT22;1646;52.450;13.326;2024-01-27T14:38:26;8.80;99.90
3268;DHT22;1646;52.450;13.326;2024-01-27T14:43:24;8.80;99.90
3268;DHT22;1646;52.450;13.326;2024-01-27T14:48:24;9.00;99.90
3268;DHT22;1646;52.450;13.326;2024-01-27T14:53:23;8.90;99.90
3268;DHT22;1646;52.450;13.326;2024-01-27T14:58:23;8.90;99.90
3268;DHT22;1646;52.450;13.326;2024-01-27T15:03:23;8.80;99.90
3268;DHT22;1646;52.450;13.326;2024-01-27T15:08:22;8.70;99.90
3268;DHT22;1646;52.450;13.326;2024-01-27T15:13:20;8.60;99.90
3268;DHT22;1646;52.450;13.326;2024-01-27T15:18:22;8.40;99.90
3268;DHT22;1646;52.450;13.326;2024-01-27T15:23:20;8.30;99.90
3268;DHT22;1646;52.450;13.326;2024-01-27T15:28:22;8.50;99.90
3268;DHT22;1646;52.450;13.326;2024-01-27T15:33:21;8.30;99.90
3268;DHT22;1646;52.450;13.326;2024-01-27T15:38:21;8.30;99.90
3268;DHT22;1646;52.450;13.326;2024-01-27T15:43:19;8.30;99.90
3268;DHT22;1646;52.450;13.326;2024-01-27T15:48:17;8.20;99.90
3268;DHT22;1646;52.450;13.326;2024-01-27T15:53:17;8.20;99.90
3268;DHT22;1646;52.450;13.326;2024-01-27T15:58:16;8.20;99.90
3268;DHT22;1646;52.450;13.326;2024-01-27T16:03:14;8.00;99.90
3268;DHT22;1646;52.450;13.326;2024-01-27T16:08:13;8.00;99.90
3268;DHT22;1646;52.450;13.326;2024-01-27T16:13:12;7.90;99.90
3268;DHT22;1646;52.450;13.326;2024-01-27T16:18:11;7.80;99.90
3268;DHT22;1646;52.450;13.326;2024-01-27T16:23:09;7.70;99.90
3268;DHT22;1646;52.450;13.326;2024-01-27T16:28:07;7.60;99.90
3268;DHT22;1646;52.450;13.326;2024-01-27T16:33:07;7.60;99.90
3268;DHT22;1646;52.450;13.326;2024-01-27T16:38:05;7.50;99.90
3268;DHT22;1646;52.450;13.326;2024-01-27T16:43:04;7.50;99.90
3268;DHT22;1646;52.450;13.326;2024-01-27T16:48:03;7.40;99.90
3268;DHT22;1646;52.450;13.326;2024-01-27T16:53:03;7.40;99.90
3268;DHT22;1646;52.450;13.326;2024-01-27T16:58:01;7.40;99.90
3268;DHT22;1646;52.450;13.326;2024-01-27T17:03:00;7.40;99.90
3268;DHT22;1646;52.450;13.326;2024-01-27T17:07:58;7.30;99.90
3268;DHT22;1646;52.450;13.326;2024-01-27T17:12:58;7.30;99.90
3268;DHT22;1646;52.450;13.326;2024-01-27T17:17:56;7.30;99.90
3268;DHT22;1646;52.450;13.326;2024-01-27T17:22:55;7.30;99.90
3268;DHT22;1646;52.450;13.326;2024-01-27T17:27:53;7.30;99.90
3268;DHT22;1646;52.450;13.326;2024-01-27T17:32:53;7.20;99.90
3268;DHT22;1646;52.450;13.326;2024-01-27T17:37:51;7.20;99.90
3268;DHT22;1646;52.450;13.326;2024-01-27T17:42:50;7.10;99.90
3268;DHT22;1646;52.450;13.326;2024-01-27T17:47:49;7.00;99.90
3268;DHT22;1646;52.450;13.326;2024-01-27T17:52:51;6.80;99.90
3268;DHT22;1646;52.450;13.326;2024-01-27T17:57:49;6.70;99.90
3268;DHT22;1646;52.450;13.326;2024-01-27T18:02:47;6.70;99.90
3268;DHT22;1646;52.450;13.326;2024-01-27T18:07:46;6.70;99.90
3268;DHT22;1646;52.450;13.326;2024-01-27T18:12:45;6.80;99.90
3268;DHT22;1646;52.450;13.326;2024-01-27T18:17:44;6.70;99.90
3268;DHT22;1646;52.450;13.326;2024-01-27T18:22:42;6.60;99.90
3268;DHT22;1646;52.450;13.326;2024-01-27T18:27:41;6.50;99.90
3268;DHT22;1646;52.450;13.326;2024-01-27T18:32:42;6.50;99.90
3268;DHT22;1646;52.450;13.326;2024-01-27T18:37:40;6.50;99.90
3268;DHT22;1646;52.450;13.326;2024-01-27T18:42:38;6.40;99.90
3268;DHT22;1646;52.450;13.326;2024-01-27T18:47:37;6.40;99.90
3268;DHT22;1646;52.450;13.326;2024-01-27T18:52:41;6.40;99.90
3268;DHT22;1646;52.450;13.326;2024-01-27T18:57:40;6.50;99.90
3268;DHT22;1646;52.450;13.326;2024-01-27T19:02:38;6.40;99.90
3268;DHT22;1646;52.450;13.326;2024-01-27T19:07:36;6.30;99.90
3268;DHT22;1646;52.450;13.326;2024-01-27T19:12:36;6.20;99.90
3268;DHT22;1646;52.450;13.326;2024-01-27T19:17:34;6.10;99.90
3268;DHT22;1646;52.450;13.326;2024-01-27T19:22:33;6.10;99.90
3268;DHT22;1646;52.450;13.326;2024-01-27T19:27:31;6.00;99.90
3268;DHT22;1646;52.450;13.326;2024-01-27T19:32:30;6.00;99.90
3268;DHT22;1646;52.450;13.326;2024-01-27T19:37:29;5.90;99.90
3268;DHT22;1646;52.450;13.326;2024-01-27T19:42:28;6.00;99.90
3268;DHT22;1646;52.450;13.326;2024-01-27T19:47:26;5.80;99.90
3268;DHT22;1646;52.450;13.326;2024-01-27T19:52:29;5.70;99.90
3268;DHT22;1646;52.450;13.326;2024-01-27T19:57:27;5.70;99.90
3268;DHT22;1646;52.450;13.326;2024-01-27T20:02:27;5.80;99.90
3268;DHT22;1646;52.450;13.326;2024-01-27T20:07:25;5.80;99.90
3268;DHT22;1646;52.450;13.326;2024-01-27T20:12:24;5.80;99.90
3268;DHT22;1646;52.450;13.326;2024-01-27T20:17:23;5.80;99.90
3268;DHT22;1646;52.450;13.326;2024-01-27T20:22:21;5.80;99.90
3268;DHT22;1646;52.450;13.326;2024-01-27T20:27:20;5.80;99.90
3268;DHT22;1646;52.450;13.326;2024-01-27T20:32:22;5.80;99.90
3268;DHT22;1646;52.450;13.326;2024-01-27T20:37:21;5.70;99.90
3268;DHT22;1646;52.450;13.326;2024-01-27T20:42:19;5.70;99.90
3268;DHT22;1646;52.450;13.326;2024-01-27T20:47:17;5.80;99.90
3268;DHT22;1646;52.450;13.326;2024-01-27T20:52:17;5.70;99.90
3268;DHT22;1646;52.450;13.326;2024-01-27T20:57:16;5.70;99.90
3268;DHT22;1646;52.450;13.326;2024-01-27T21:02:16;5.70;99.90
3268;DHT22;1646;52.450;13.326;2024-01-27T21:07:17;5.70;99.90
3268;DHT22;1646;52.450;13.326;2024-01-27T21:12:16;5.60;99.90
3268;DHT22;1646;52.450;13.326;2024-01-27T21:17:14;5.60;99.90
3268;DHT22;1646;52.450;13.326;2024-01-27T21:22:13;5.60;99.90
3268;DHT22;1646;52.450;13.326;2024-01-27T21:27:12;5.60;99.90
3268;DHT22;1646;52.450;13.326;2024-01-27T21:32:10;5.60;99.90
3268;DHT22;1646;52.450;13.326;2024-01-27T21:37:09;5.40;99.90
3268;DHT22;1646;52.450;13.326;2024-01-27T21:42:07;5.30;99.90
3268;DHT22;1646;52.450;13.326;2024-01-27T21:47:07;5.30;99.90
3268;DHT22;1646;52.450;13.326;2024-01-27T21:52:05;5.20;99.90
3268;DHT22;1646;52.450;13.326;2024-01-27T21:57:04;5.10;99.90
3268;DHT22;1646;52.450;13.326;2024-01-27T22:02:03;5.10;99.90
3268;DHT22;1646;52.450;13.326;2024-01-27T22:07:03;5.10;99.90
3268;DHT22;1646;52.450;13.326;2024-01-27T22:12:01;5.10;99.90
3268;DHT22;1646;52.450;13.326;2024-01-27T22:17:01;5.10;99.90
3268;DHT22;1646;52.450;13.326;2024-01-27T22:22:00;5.10;99.90
3268;DHT22;1646;52.450;13.326;2024-01-27T22:26:59;5.20;99.90
3268;DHT22;1646;52.450;13.326;2024-01-27T22:31:58;5.30;99.90
3268;DHT22;1646;52.450;13.326;2024-01-27T22:36:56;5.30;99.90
3268;DHT22;1646;52.450;13.326;2024-01-27T22:41:54;5.30;99.90
3268;DHT22;1646;52.450;13.326;2024-01-27T22:46:55;5.30;99.90
3268;DHT22;1646;52.450;13.326;2024-01-27T22:51:53;5.30;99.90
3268;DHT22;1646;52.450;13.326;2024-01-27T22:56:51;5.30;99.90
3268;DHT22;1646;52.450;13.326;2024-01-27T23:01:49;5.30;99.90
3268;DHT22;1646;52.450;13.326;2024-01-27T23:06:49;5.30;99.90
3268;DHT22;1646;52.450;13.326;2024-01-27T23:11:48;5.30;99.90
3268;DHT22;1646;52.450;13.326;2024-01-27T23:16:46;5.30;99.90
3268;DHT22;1646;52.450;13.326;2024-01-27T23:21:44;5.30;99.90
3268;DHT22;1646;52.450;13.326;2024-01-27T23:26:44;5.30;99.90
3268;DHT22;1646;52.450;13.326;2024-01-27T23:31:42;5.30;99.90
3268;DHT22;1646;52.450;13.326;2024-01-27T23:36:42;5.20;99.90
3268;DHT22;1646;52.450;13.326;2024-01-27T23:41:40;5.20;99.90
3268;DHT22;1646;52.450;13.326;2024-01-27T23:46:40;5.10;99.90
3268;DHT22;1646;52.450;13.326;2024-01-27T23:51:39;5.10;99.90
3268;DHT22;1646;52.450;13.326;2024-01-27T23:56:38;5.00;99.90
